Time;durP1;ratioP1;P1;durP2;ratioP2;P2;SDS_P1;SDS_P2;PMS_P1;PMS_P2;Temp;Humidity;BMP_temperature;BMP_pressure;BME280_temperature;BME280_humidity;BME280_pressure;Samples;Min_cycle;Max_cycle;Signal;HPM_P1;HPM_P2
2023/12/20 00:00:17;;;;;;;11.20;5.30;;;8.40;98.50;;;;;;5095617;28;20385;-75
2023/12/20 00:02:46;;;;;;;8.48;4.50;;;8.40;99.30;;;;;;5096070;28;20392;-75
2023/12/20 00:05:13;;;;;;;9.05;4.50;;;8.30;99.90;;;;;;5095959;28;20385;-74
2023/12/20 00:07:39;;;;;;;10.90;4.70;;;8.30;99.90;;;;;;5095393;28;20964;-76
2023/12/20 00:10:04;;;;;;;11.10;4.77;;;8.30;99.90;;;;;;5093330;28;20480;-74
2023/12/20 00:12:30;;;;;;;11.67;5.10;;;8.30;99.90;;;;;;5075288;28;20386;-74
2023/12/20 00:14:55;;;;;;;7.80;4.33;;;8.40;96.80;;;;;;5093117;28;20427;-74
2023/12/20 00:17:21;;;;;;;11.13;4.50;;;8.50;91.00;;;;;;5093499;28;20382;-75
2023/12/20 00:19:46;;;;;;;15.97;4.60;;;8.50;89.90;;;;;;5093210;28;20390;-74
2023/12/20 00:22:12;;;;;;;10.37;4.30;;;8.50;90.50;;;;;;5093468;28;20695;-75
2023/12/20 00:24:38;;;;;;;6.70;4.03;;;8.40;89.20;;;;;;5093289;28;20390;-74
2023/12/20 00:27:03;;;;;;;13.67;5.73;;;8.50;89.70;;;;;;5093199;28;20390;-76
2023/12/20 00:29:29;;;;;;;13.85;6.53;;;8.40;95.50;;;;;;5092928;28;20419;-75
2023/12/20 00:31:54;;;;;;;13.77;7.30;;;8.40;93.70;;;;;;5093368;28;20477;-73
2023/12/20 00:34:20;;;;;;;22.70;6.30;;;8.50;94.90;;;;;;5093086;28;20389;-75
2023/12/20 00:36:45;;;;;;;13.88;7.15;;;8.40;95.90;;;;;;5092943;28;20370;-73
2023/12/20 00:39:11;;;;;;;13.95;6.60;;;8.50;95.30;;;;;;5093050;28;20378;-74
2023/12/20 00:41:37;;;;;;;7.90;5.67;;;8.30;95.70;;;;;;5092860;28;21019;-74
2023/12/20 00:44:02;;;;;;;14.50;6.97;;;8.30;96.40;;;;;;5092876;28;20629;-74
2023/12/20 00:46:28;;;;;;;14.38;6.82;;;8.30;96.60;;;;;;5093597;28;20408;-74
2023/12/20 00:48:53;;;;;;;11.15;6.20;;;8.30;95.70;;;;;;5075269;28;20468;-75
2023/12/20 00:51:19;;;;;;;14.30;7.13;;;8.20;97.20;;;;;;5093100;28;20947;-73
2023/12/20 00:53:46;;;;;;;15.90;6.53;;;8.10;99.90;;;;;;5092917;28;20457;-75
2023/12/20 00:56:11;;;;;;;10.63;6.13;;;8.20;96.40;;;;;;5092356;28;20382;-73
2023/12/20 00:58:37;;;;;;;11.80;6.80;;;8.30;96.40;;;;;;5092868;28;20391;-74
2023/12/20 01:01:02;;;;;;;15.50;8.00;;;8.40;93.90;;;;;;5093122;28;20385;-73
2023/12/20 01:03:28;;;;;;;12.70;7.43;;;8.40;92.70;;;;;;5092895;28;20899;-75
2023/12/20 01:05:53;;;;;;;15.33;8.40;;;8.50;91.70;;;;;;5092286;28;20421;-73
2023/12/20 01:08:19;;;;;;;18.00;8.67;;;8.50;91.40;;;;;;5076187;28;20394;-74
2023/12/20 01:10:46;;;;;;;18.27;9.10;;;8.40;92.00;;;;;;5095241;28;20397;-74
2023/12/20 01:13:12;;;;;;;15.50;9.02;;;8.30;95.30;;;;;;5093813;28;20474;-73
2023/12/20 01:15:37;;;;;;;17.95;10.77;;;8.30;93.70;;;;;;5091840;28;20454;-74
2023/12/20 01:18:03;;;;;;;18.88;10.80;;;8.30;93.60;;;;;;5073770;28;20465;-73
2023/12/20 01:20:28;;;;;;;22.63;12.68;;;8.30;92.90;;;;;;5091851;28;20744;-73
2023/12/20 01:22:54;;;;;;;22.73;13.47;;;8.30;90.90;;;;;;5092071;28;20774;-75
2023/12/20 01:25:19;;;;;;;24.40;13.57;;;8.30;89.00;;;;;;5091909;28;20473;-73
2023/12/20 01:27:45;;;;;;;23.50;13.40;;;8.30;89.80;;;;;;5091861;28;20477;-75
2023/12/20 01:30:11;;;;;;;22.23;14.57;;;8.30;88.30;;;;;;5091376;28;20412;-74
2023/12/20 01:32:36;;;;;;;24.90;15.15;;;8.30;87.30;;;;;;5073623;28;20395;-74
2023/12/20 01:35:02;;;;;;;23.75;14.65;;;8.30;85.80;;;;;;5091480;28;20392;-74
2023/12/20 01:37:29;;;;;;;27.27;16.00;;;8.30;85.20;;;;;;5091846;28;20386;-74
2023/12/20 01:39:54;;;;;;;29.75;15.05;;;8.20;86.70;;;;;;5091625;28;20374;-74
2023/12/20 01:42:20;;;;;;;27.88;14.50;;;8.30;84.40;;;;;;5096304;28;20438;-75
2023/12/20 01:44:45;;;;;;;22.48;14.27;;;8.20;83.70;;;;;;5091612;28;20462;-73
2023/12/20 01:47:12;;;;;;;23.90;14.27;;;8.20;81.70;;;;;;5091791;28;20864;-74
2023/12/20 01:49:37;;;;;;;27.43;14.50;;;8.10;83.40;;;;;;5073287;28;20424;-73
2023/12/20 01:52:03;;;;;;;28.60;13.57;;;8.00;83.90;;;;;;5091299;28;20402;-74
2023/12/20 01:54:30;;;;;;;24.17;13.88;;;7.90;85.50;;;;;;5090686;28;20869;-73
2023/12/20 01:56:55;;;;;;;27.45;13.98;;;7.80;87.60;;;;;;5091308;28;20396;-74
2023/12/20 01:59:21;;;;;;;26.15;14.75;;;7.60;89.70;;;;;;5090931;28;20386;-74
2023/12/20 02:01:47;;;;;;;26.70;13.20;;;7.70;90.70;;;;;;5091583;28;20382;-74
2023/12/20 02:04:13;;;;;;;28.83;13.53;;;7.70;87.20;;;;;;5091171;28;20390;-75
2023/12/20 02:06:40;;;;;;;22.77;11.60;;;7.70;86.20;;;;;;5091308;28;20489;-72
2023/12/20 02:09:07;;;;;;;22.85;11.57;;;7.50;86.80;;;;;;5091097;28;20385;-74
2023/12/20 02:11:33;;;;;;;22.23;10.57;;;7.40;88.00;;;;;;5091016;28;20888;-73
2023/12/20 02:13:58;;;;;;;20.10;10.45;;;7.40;87.30;;;;;;5091049;28;20385;-74
2023/12/20 02:16:24;;;;;;;24.65;10.55;;;7.20;88.80;;;;;;5091075;28;20389;-74
2023/12/20 02:18:49;;;;;;;24.80;10.00;;;7.20;90.00;;;;;;5091270;28;20381;-75
2023/12/20 02:21:15;;;;;;;26.10;10.57;;;7.20;89.80;;;;;;5072837;28;20378;-75
2023/12/20 02:23:41;;;;;;;28.27;11.45;;;7.20;89.60;;;;;;5090885;28;20787;-74
2023/12/20 02:26:07;;;;;;;21.52;11.30;;;7.20;89.10;;;;;;5091359;28;20394;-73
2023/12/20 02:28:33;;;;;;;23.52;11.65;;;7.10;92.70;;;;;;5090789;28;20417;-73
2023/12/20 02:30:58;;;;;;;21.73;10.60;;;7.10;92.20;;;;;;5097200;22;20467;-72
2023/12/20 02:33:24;;;;;;;31.53;11.03;;;7.10;91.60;;;;;;5073999;28;20746;-73
2023/12/20 02:35:50;;;;;;;27.73;10.60;;;7.20;90.00;;;;;;5073549;28;20745;-73
2023/12/20 02:38:15;;;;;;;22.20;10.80;;;7.20;90.60;;;;;;5056494;28;20469;-74
2023/12/20 02:40:41;;;;;;;24.80;10.63;;;7.20;90.60;;;;;;5072519;28;20396;-72
2023/12/20 02:43:06;;;;;;;25.67;9.93;;;7.30;89.40;;;;;;5073643;28;20869;-72
2023/12/20 02:45:32;;;;;;;24.07;9.60;;;7.40;87.00;;;;;;5054928;28;20387;-73
2023/12/20 02:47:57;;;;;;;22.17;8.50;;;7.40;86.50;;;;;;5072498;28;20376;-73
2023/12/20 02:50:23;;;;;;;17.57;8.13;;;7.40;85.80;;;;;;5053942;28;20522;-72
2023/12/20 02:52:49;;;;;;;24.47;9.07;;;7.40;84.90;;;;;;5071635;28;20415;-72
2023/12/20 02:55:14;;;;;;;24.73;8.20;;;7.30;86.40;;;;;;5070975;28;20876;-73
2023/12/20 02:57:43;;;;;;;17.90;7.17;;;7.30;85.10;;;;;;5072446;28;20452;-72
2023/12/20 03:00:10;;;;;;;20.98;6.70;;;7.30;84.40;;;;;;5055192;28;20478;-73
2023/12/20 03:02:36;;;;;;;18.63;5.90;;;7.40;83.20;;;;;;5071452;28;20379;-72
2023/12/20 03:05:02;;;;;;;17.98;5.80;;;7.30;84.50;;;;;;5071137;28;20931;-74
2023/12/20 03:07:27;;;;;;;15.20;5.40;;;7.30;83.40;;;;;;5071702;28;20380;-72
2023/12/20 03:09:53;;;;;;;19.53;5.63;;;7.40;82.70;;;;;;5072012;28;20432;-73
2023/12/20 03:12:18;;;;;;;21.50;6.10;;;7.40;83.20;;;;;;5072193;28;20436;-73
2023/12/20 03:14:44;;;;;;;18.33;5.37;;;7.40;81.80;;;;;;5071333;28;20976;-72
2023/12/20 03:17:10;;;;;;;18.83;5.60;;;7.40;82.60;;;;;;5071723;28;20379;-71
2023/12/20 03:19:36;;;;;;;18.65;5.28;;;7.30;83.70;;;;;;5070805;28;20392;-73
2023/12/20 03:22:01;;;;;;;20.58;5.13;;;7.30;83.10;;;;;;5074671;28;20375;-71
2023/12/20 03:24:27;;;;;;;15.77;4.63;;;7.30;82.10;;;;;;5074444;28;20409;-72
2023/12/20 03:26:53;;;;;;;27.50;5.50;;;7.20;82.90;;;;;;5074485;28;20725;-74
2023/12/20 03:29:18;;;;;;;23.00;5.50;;;7.20;82.80;;;;;;5074343;28;20399;-72
2023/12/20 03:31:44;;;;;;;15.57;4.67;;;7.20;85.20;;;;;;5073622;28;20442;-72
2023/12/20 03:34:10;;;;;;;18.23;4.83;;;7.10;85.40;;;;;;5074225;28;20418;-71
2023/12/20 03:36:36;;;;;;;21.35;4.80;;;7.20;84.90;;;;;;5073718;28;20390;-72
2023/12/20 03:39:01;;;;;;;23.67;4.82;;;7.30;81.10;;;;;;5073639;28;20459;-71
2023/12/20 03:41:27;;;;;;;15.52;4.88;;;7.30;80.80;;;;;;5073651;28;20379;-72
2023/12/20 03:43:52;;;;;;;21.85;4.82;;;7.20;82.80;;;;;;5073624;28;20419;-72
2023/12/20 03:46:18;;;;;;;18.42;4.43;;;7.30;80.70;;;;;;5073821;28;20376;-72
2023/12/20 03:48:43;;;;;;;22.48;4.80;;;7.30;81.80;;;;;;5074155;28;20406;-72
2023/12/20 03:51:09;;;;;;;15.82;4.75;;;7.30;80.50;;;;;;5074281;28;20824;-72
2023/12/20 03:53:34;;;;;;;19.52;5.00;;;7.20;82.30;;;;;;5074254;28;20896;-72
2023/12/20 03:56:00;;;;;;;19.63;5.00;;;7.20;82.00;;;;;;5074336;28;20691;-72
2023/12/20 03:58:25;;;;;;;18.67;5.35;;;7.10;83.10;;;;;;5073681;28;20462;-71
2023/12/20 04:00:51;;;;;;;20.67;5.28;;;7.10;82.80;;;;;;5073206;28;21179;-71
2023/12/20 04:03:16;;;;;;;22.48;5.03;;;7.10;83.50;;;;;;5073494;28;20963;-71
2023/12/20 04:05:42;;;;;;;22.25;5.35;;;7.10;82.90;;;;;;5073743;28;20739;-72
2023/12/20 04:08:09;;;;;;;19.33;4.80;;;7.00;84.70;;;;;;5073745;28;20746;-72
2023/12/20 04:10:35;;;;;;;25.35;5.57;;;7.00;83.80;;;;;;5072884;28;20897;-72
2023/12/20 04:13:00;;;;;;;15.10;5.07;;;6.90;84.60;;;;;;5073538;28;20433;-72
2023/12/20 04:15:26;;;;;;;20.63;5.43;;;6.90;86.20;;;;;;5074093;28;20459;-71
2023/12/20 04:17:51;;;;;;;24.17;5.80;;;6.80;87.40;;;;;;5075207;28;20447;-71
2023/12/20 04:20:17;;;;;;;24.37;5.93;;;6.70;88.10;;;;;;5074840;28;20376;-72
2023/12/20 04:22:43;;;;;;;23.03;5.70;;;6.60;89.30;;;;;;5075147;28;20407;-72
2023/12/20 04:25:08;;;;;;;20.50;6.20;;;6.50;90.50;;;;;;5074025;28;20379;-72
2023/12/20 04:27:34;;;;;;;15.63;5.57;;;6.50;90.80;;;;;;5073910;28;20383;-72
2023/12/20 04:29:59;;;;;;;18.67;6.10;;;6.50;91.00;;;;;;5073156;28;20381;-71
2023/12/20 04:32:25;;;;;;;17.80;6.20;;;6.50;91.00;;;;;;5072519;28;20411;-71
2023/12/20 04:34:51;;;;;;;20.47;6.00;;;6.50;91.10;;;;;;5072323;28;20380;-72
2023/12/20 04:37:16;;;;;;;18.77;6.23;;;6.40;92.70;;;;;;5072488;28;20376;-73
2023/12/20 04:39:42;;;;;;;27.03;7.40;;;6.60;91.30;;;;;;5072567;28;20407;-73
2023/12/20 04:42:08;;;;;;;23.42;6.13;;;6.60;90.70;;;;;;5072215;28;20870;-73
2023/12/20 04:44:33;;;;;;;24.40;6.95;;;6.60;90.20;;;;;;5072663;28;20874;-73
2023/12/20 04:46:59;;;;;;;29.02;7.40;;;6.60;90.10;;;;;;5072259;28;20884;-72
2023/12/20 04:49:25;;;;;;;20.50;6.90;;;6.60;88.00;;;;;;5072260;28;20429;-73
2023/12/20 04:51:51;;;;;;;27.53;7.17;;;6.60;88.00;;;;;;5072180;28;20467;-72
2023/12/20 04:54:16;;;;;;;26.50;7.47;;;6.60;88.50;;;;;;5072212;28;20795;-72
2023/12/20 04:56:42;;;;;;;24.53;6.70;;;6.70;88.30;;;;;;5072289;28;20410;-72
2023/12/20 04:59:07;;;;;;;20.87;6.40;;;6.70;88.40;;;;;;5072457;28;20427;-72
2023/12/20 05:01:33;;;;;;;28.47;7.60;;;6.80;87.60;;;;;;5055368;28;20419;-74
2023/12/20 05:03:59;;;;;;;18.27;7.15;;;6.80;85.00;;;;;;5072560;28;20390;-73
2023/12/20 05:06:24;;;;;;;18.92;6.80;;;7.00;81.00;;;;;;5072418;28;20379;-72
2023/12/20 05:08:50;;;;;;;21.40;7.40;;;7.00;81.20;;;;;;5071710;28;20478;-72
2023/12/20 05:11:15;;;;;;;25.42;7.40;;;7.10;79.70;;;;;;5071767;28;20495;-72
2023/12/20 05:13:42;;;;;;;23.05;7.28;;;7.10;80.10;;;;;;5071862;28;20404;-72
2023/12/20 05:16:08;;;;;;;19.17;7.00;;;7.10;79.20;;;;;;5072085;28;20833;-73
2023/12/20 05:18:34;;;;;;;20.60;7.10;;;7.10;78.90;;;;;;5072149;28;20387;-72
2023/12/20 05:21:00;;;;;;;23.80;6.47;;;7.00;80.20;;;;;;5071800;28;20402;-73
2023/12/20 05:23:26;;;;;;;19.95;6.47;;;7.00;81.30;;;;;;5071585;28;20428;-72
2023/12/20 05:25:51;;;;;;;20.77;6.10;;;7.00;79.80;;;;;;5071140;28;20392;-72
2023/12/20 05:28:17;;;;;;;26.42;7.68;;;7.00;81.30;;;;;;5071297;28;20390;-72
2023/12/20 05:30:43;;;;;;;28.50;7.10;;;7.00;80.20;;;;;;5071108;28;20408;-71
2023/12/20 05:33:09;;;;;;;22.90;6.60;;;7.00;79.40;;;;;;5071785;28;20466;-72
2023/12/20 05:35:34;;;;;;;24.30;7.10;;;7.00;79.80;;;;;;5071575;28;20414;-71
2023/12/20 05:38:00;;;;;;;21.10;7.35;;;7.10;80.10;;;;;;5071258;28;20388;-72
2023/12/20 05:40:26;;;;;;;23.07;6.83;;;7.10;80.30;;;;;;5071003;28;20457;-72
2023/12/20 05:42:51;;;;;;;27.93;7.70;;;7.00;81.80;;;;;;5053145;28;20513;-71
2023/12/20 05:45:17;;;;;;;23.53;6.77;;;7.00;82.60;;;;;;5072181;28;20464;-73
2023/12/20 05:47:42;;;;;;;20.75;6.40;;;7.00;82.70;;;;;;5070814;28;20379;-71
2023/12/20 05:50:08;;;;;;;24.30;6.80;;;7.00;82.80;;;;;;5070826;28;20380;-71
2023/12/20 05:52:34;;;;;;;19.73;6.38;;;7.00;80.90;;;;;;5070889;28;20386;-72
2023/12/20 05:55:01;;;;;;;19.88;6.30;;;7.10;80.50;;;;;;5071006;28;20726;-72
2023/12/20 05:57:27;;;;;;;19.63;6.70;;;7.10;79.30;;;;;;5070758;28;20805;-72
2023/12/20 05:59:52;;;;;;;20.25;6.65;;;7.10;79.00;;;;;;5070964;28;20781;-72
2023/12/20 06:02:18;;;;;;;20.77;6.53;;;7.10;80.40;;;;;;5070674;28;20383;-72
2023/12/20 06:04:43;;;;;;;22.33;6.03;;;7.10;80.60;;;;;;5070761;28;20391;-72
2023/12/20 06:07:12;;;;;;;25.35;6.70;;;7.10;79.80;;;;;;5070452;28;20376;-72
2023/12/20 06:09:38;;;;;;;21.90;6.60;;;7.20;77.90;;;;;;5070663;28;20459;-73
2023/12/20 06:12:04;;;;;;;23.40;6.70;;;7.20;78.30;;;;;;5070590;28;20490;-71
2023/12/20 06:14:30;;;;;;;22.43;7.50;;;7.20;78.80;;;;;;5070820;28;20383;-72
2023/12/20 06:16:59;;;;;;;22.85;7.13;;;7.10;80.50;;;;;;5071851;28;20441;-71
2023/12/20 06:19:24;;;;;;;24.00;6.90;;;7.20;79.60;;;;;;5070331;28;20436;-71
2023/12/20 06:21:50;;;;;;;24.20;7.30;;;7.20;79.20;;;;;;5070542;28;20525;-72
2023/12/20 06:24:15;;;;;;;23.20;6.80;;;7.30;76.80;;;;;;5069975;28;20387;-71
2023/12/20 06:26:41;;;;;;;25.37;7.60;;;7.30;76.10;;;;;;5070114;28;20498;-71
2023/12/20 06:29:06;;;;;;;21.00;7.33;;;7.30;76.50;;;;;;5070427;28;20410;-72
2023/12/20 06:31:32;;;;;;;25.10;7.80;;;7.30;78.50;;;;;;5070346;28;20411;-72
2023/12/20 06:33:59;;;;;;;25.10;7.70;;;7.30;77.30;;;;;;5052326;28;20400;-72
2023/12/20 06:36:25;;;;;;;25.00;7.22;;;7.30;77.10;;;;;;5070425;28;20376;-72
2023/12/20 06:38:51;;;;;;;30.05;7.43;;;7.40;74.60;;;;;;5070374;28;20390;-73
2023/12/20 06:41:17;;;;;;;25.33;7.40;;;7.40;74.40;;;;;;5052446;28;20384;-72
2023/12/20 06:43:43;;;;;;;22.63;7.65;;;7.30;75.10;;;;;;5070380;28;20380;-72
2023/12/20 06:46:08;;;;;;;25.55;8.77;;;7.40;75.30;;;;;;5070336;28;20391;-73
2023/12/20 06:48:34;;;;;;;24.33;7.43;;;7.30;77.20;;;;;;5070312;28;20481;-73
2023/12/20 06:51:04;;;;;;;28.00;8.03;;;7.30;75.50;;;;;;5069971;28;20921;-72
2023/12/20 06:53:30;;;;;;;25.73;8.13;;;7.30;76.70;;;;;;5070622;28;20565;-72
2023/12/20 06:55:58;;;;;;;20.38;6.93;;;7.40;75.60;;;;;;5072583;28;20455;-72
2023/12/20 06:58:24;;;;;;;32.80;8.60;;;7.50;73.70;;;;;;5074302;28;20578;-73
2023/12/20 07:00:51;;;;;;;21.00;7.38;;;7.50;74.70;;;;;;5074106;28;20379;-72
2023/12/20 07:03:17;;;;;;;21.63;7.93;;;7.40;74.80;;;;;;5073953;28;20386;-72
2023/12/20 07:05:42;;;;;;;27.17;9.00;;;7.40;74.90;;;;;;5074194;28;20474;-72
2023/12/20 07:08:08;;;;;;;23.70;8.30;;;7.40;74.80;;;;;;5074302;28;20378;-73
2023/12/20 07:10:33;;;;;;;20.10;7.57;;;7.40;75.20;;;;;;5073522;28;20520;-72
2023/12/20 07:12:59;;;;;;;27.10;8.07;;;7.40;73.20;;;;;;5074076;28;20382;-72
2023/12/20 07:15:24;;;;;;;27.57;7.70;;;7.50;74.00;;;;;;5074072;28;20882;-73
2023/12/20 07:17:50;;;;;;;32.60;7.87;;;7.50;73.70;;;;;;5074000;28;20382;-72
2023/12/20 07:20:15;;;;;;;23.60;7.00;;;7.50;72.70;;;;;;5073966;28;20401;-73
2023/12/20 07:22:41;;;;;;;23.23;7.27;;;7.50;72.80;;;;;;5073896;28;20423;-72
2023/12/20 07:25:07;;;;;;;25.07;7.90;;;7.50;73.20;;;;;;5074285;28;20478;-73
2023/12/20 07:27:32;;;;;;;31.10;7.53;;;7.50;73.30;;;;;;5073199;28;20742;-73
2023/12/20 07:29:58;;;;;;;27.73;6.80;;;7.50;72.80;;;;;;5073439;28;20380;-73
2023/12/20 07:32:24;;;;;;;24.37;7.20;;;7.70;69.20;;;;;;5055639;28;20407;-73
2023/12/20 07:34:49;;;;;;;28.00;7.60;;;7.70;69.20;;;;;;5073667;28;20375;-73
2023/12/20 07:37:15;;;;;;;26.23;9.07;;;7.60;70.10;;;;;;5074193;28;20796;-73
2023/12/20 07:39:44;;;;;;;25.17;7.30;;;7.50;71.50;;;;;;5073492;28;20435;-72
2023/12/20 07:42:10;;;;;;;26.15;7.20;;;7.60;69.50;;;;;;5074072;28;20399;-72
2023/12/20 07:44:36;;;;;;;19.13;7.18;;;7.60;69.30;;;;;;5056102;28;20383;-72
2023/12/20 07:47:02;;;;;;;24.95;8.63;;;7.70;68.00;;;;;;5073620;28;20777;-71
2023/12/20 07:49:27;;;;;;;31.27;7.47;;;7.60;69.50;;;;;;5073770;28;20380;-72
2023/12/20 07:51:53;;;;;;;26.35;9.23;;;7.70;69.20;;;;;;5073642;28;20400;-72
2023/12/20 07:54:19;;;;;;;24.67;7.90;;;7.70;69.20;;;;;;5073357;28;20462;-72
2023/12/20 07:56:46;;;;;;;27.13;8.33;;;7.70;68.70;;;;;;5073611;28;20463;-71
2023/12/20 07:59:12;;;;;;;23.52;8.10;;;7.70;67.50;;;;;;5073320;28;20379;-72
2023/12/20 08:01:38;;;;;;;25.23;7.80;;;7.80;67.50;;;;;;5073105;28;20379;-72
2023/12/20 08:04:03;;;;;;;26.20;7.87;;;7.80;66.60;;;;;;5073338;28;20379;-72
2023/12/20 08:06:29;;;;;;;17.27;7.95;;;7.70;66.50;;;;;;5037706;28;20387;-72
2023/12/20 08:08:54;;;;;;;35.03;8.73;;;7.70;67.70;;;;;;5072980;28;20383;-72
2023/12/20 08:11:20;;;;;;;25.40;7.87;;;7.70;67.70;;;;;;5073472;28;20400;-72
2023/12/20 08:13:46;;;;;;;25.08;7.43;;;7.80;66.10;;;;;;5073562;28;20388;-71
2023/12/20 08:16:13;;;;;;;22.05;7.40;;;7.70;67.10;;;;;;5054649;28;20388;-72
2023/12/20 08:18:39;;;;;;;26.42;7.53;;;7.80;65.70;;;;;;5073592;28;20478;-72
2023/12/20 08:21:07;;;;;;;25.53;8.40;;;7.80;65.30;;;;;;5073484;28;20545;-72
2023/12/20 08:23:33;;;;;;;25.33;7.90;;;7.80;64.30;;;;;;5072924;28;20379;-73
2023/12/20 08:25:58;;;;;;;20.50;6.90;;;7.80;64.00;;;;;;5072693;28;20530;-72
2023/12/20 08:28:24;;;;;;;21.93;6.70;;;7.90;62.80;;;;;;5072374;28;20387;-72
2023/12/20 08:30:53;;;;;;;25.17;7.07;;;7.80;63.40;;;;;;5089413;22;20487;-74
2023/12/20 08:33:19;;;;;;;23.70;6.95;;;7.80;63.80;;;;;;5092989;28;20397;-75
2023/12/20 08:35:44;;;;;;;24.05;6.82;;;7.90;62.60;;;;;;5092930;28;20378;-76
2023/12/20 08:38:10;;;;;;;21.83;6.50;;;7.90;63.10;;;;;;5093115;28;20421;-75
2023/12/20 08:40:35;;;;;;;25.58;6.70;;;7.90;62.70;;;;;;5093307;28;20779;-76
2023/12/20 08:43:01;;;;;;;21.30;6.30;;;7.90;62.00;;;;;;5093420;28;20453;-76
2023/12/20 08:45:27;;;;;;;27.52;6.65;;;7.90;63.20;;;;;;5093062;28;20393;-77
2023/12/20 08:47:52;;;;;;;22.30;7.00;;;7.90;61.40;;;;;;5093158;28;20382;-76
2023/12/20 08:50:18;;;;;;;27.45;6.03;;;7.90;62.40;;;;;;5092726;28;20382;-73
2023/12/20 08:52:43;;;;;;;24.50;6.72;;;7.80;62.90;;;;;;5074532;28;20387;-75
2023/12/20 08:55:12;;;;;;;22.13;6.35;;;7.90;63.00;;;;;;5093429;28;20819;-74
2023/12/20 08:57:38;;;;;;;25.00;6.38;;;7.80;63.50;;;;;;5092843;28;20385;-73
2023/12/20 09:00:04;;;;;;;30.30;6.50;;;7.90;62.70;;;;;;5092665;28;20461;-75
2023/12/20 09:02:30;;;;;;;22.08;6.82;;;7.70;63.90;;;;;;5092455;28;20727;-75
2023/12/20 09:04:55;;;;;;;20.90;5.60;;;7.80;63.20;;;;;;5092388;28;20880;-76
2023/12/20 09:07:25;;;;;;;22.90;5.80;;;7.90;63.20;;;;;;5092525;28;20868;-73
2023/12/20 09:09:51;;;;;;;14.95;5.70;;;7.80;63.00;;;;;;5092448;28;20381;-76
2023/12/20 09:12:19;;;;;;;27.08;6.30;;;7.90;63.20;;;;;;5074531;28;20401;-75
2023/12/20 09:14:45;;;;;;;21.98;5.75;;;7.90;63.60;;;;;;5092750;28;20382;-74
2023/12/20 09:17:11;;;;;;;28.92;6.82;;;7.80;63.10;;;;;;5092196;28;20414;-74
2023/12/20 09:19:37;;;;;;;24.70;6.45;;;7.90;63.40;;;;;;5092095;28;20427;-74
2023/12/20 09:22:03;;;;;;;29.00;6.93;;;7.90;62.70;;;;;;5092587;28;20386;-75
2023/12/20 09:24:29;;;;;;;15.52;5.50;;;8.00;62.40;;;;;;5092241;28;20719;-76
2023/12/20 09:26:55;;;;;;;20.00;5.65;;;8.00;62.50;;;;;;5092500;28;20414;-75
2023/12/20 09:29:21;;;;;;;15.43;5.23;;;7.90;61.90;;;;;;5092323;28;20405;-74
2023/12/20 09:31:46;;;;;;;22.97;5.90;;;7.90;63.20;;;;;;5094420;28;20413;-75
2023/12/20 09:34:14;;;;;;;20.08;5.65;;;8.10;61.30;;;;;;5097593;28;20439;-76
2023/12/20 09:36:46;;;;;;;22.98;5.53;;;8.00;61.60;;;;;;5078647;28;20405;-76
2023/12/20 09:39:12;;;;;;;20.93;5.57;;;7.90;62.40;;;;;;5093301;28;20374;-75
2023/12/20 09:41:46;;;;;;;19.27;5.97;;;8.00;62.30;;;;;;5093268;28;20390;-76
2023/12/20 09:44:15;;;;;;;27.48;5.70;;;8.10;60.70;;;;;;5075383;28;20425;-74
2023/12/20 09:46:45;;;;;;;21.63;5.50;;;8.00;62.50;;;;;;5075911;28;20876;-76
2023/12/20 09:49:12;;;;;;;22.08;5.32;;;8.10;61.20;;;;;;5075833;28;20386;-74
2023/12/20 09:51:39;;;;;;;19.17;6.03;;;8.10;61.20;;;;;;5092274;28;20401;-75
2023/12/20 09:54:05;;;;;;;26.20;5.63;;;8.10;60.90;;;;;;5093159;28;20706;-75
2023/12/20 09:56:30;;;;;;;22.50;5.27;;;8.30;59.70;;;;;;5093123;28;20465;-75
2023/12/20 09:58:57;;;;;;;14.43;4.90;;;8.20;59.70;;;;;;5093579;28;20474;-75
2023/12/20 10:01:23;;;;;;;21.50;5.18;;;8.20;58.50;;;;;;5093077;28;20744;-75
2023/12/20 10:03:51;;;;;;;23.33;5.50;;;8.20;59.50;;;;;;5091933;28;20400;-75
2023/12/20 10:06:17;;;;;;;25.80;5.38;;;8.20;58.70;;;;;;5091872;28;20394;-75
2023/12/20 10:08:43;;;;;;;19.50;5.85;;;8.10;59.70;;;;;;5091865;28;20378;-76
2023/12/20 10:11:09;;;;;;;20.67;5.30;;;8.10;59.50;;;;;;5093566;28;20398;-76
2023/12/20 10:13:40;;;;;;;23.02;6.00;;;8.10;60.40;;;;;;5092432;28;20439;-74
2023/12/20 10:16:07;;;;;;;19.20;4.75;;;8.10;60.80;;;;;;5092340;28;20382;-76
2023/12/20 10:18:33;;;;;;;29.48;6.10;;;8.10;60.30;;;;;;5092164;28;20386;-75
2023/12/20 10:20:58;;;;;;;16.47;5.30;;;8.10;60.60;;;;;;5091709;28;20393;-75
2023/12/20 10:23:25;;;;;;;24.93;5.60;;;8.10;60.10;;;;;;5074801;28;20386;-74
2023/12/20 10:25:59;;;;;;;22.42;5.65;;;8.10;60.50;;;;;;5092531;28;20436;-76
2023/12/20 10:28:27;;;;;;;25.30;5.77;;;8.00;60.70;;;;;;5092000;28;20862;-74
2023/12/20 10:30:56;;;;;;;18.20;5.90;;;8.00;62.40;;;;;;5074299;28;20497;-74
2023/12/20 10:33:28;;;;;;;21.35;6.10;;;8.10;61.80;;;;;;5092685;28;20374;-74
2023/12/20 10:35:55;;;;;;;20.20;5.20;;;8.10;61.80;;;;;;5092334;28;20385;-75
2023/12/20 10:38:21;;;;;;;20.57;4.63;;;8.20;59.60;;;;;;5092368;28;20856;-74
2023/12/20 10:40:47;;;;;;;20.38;5.80;;;8.20;60.00;;;;;;5091629;28;20377;-76
2023/12/20 10:43:13;;;;;;;22.13;5.90;;;8.30;59.90;;;;;;5073236;28;20421;-75
2023/12/20 10:45:39;;;;;;;19.98;5.70;;;8.40;59.30;;;;;;5091661;28;20859;-76
2023/12/20 10:48:05;;;;;;;21.13;5.50;;;8.30;59.10;;;;;;5091255;28;20390;-75
2023/12/20 10:50:31;;;;;;;31.17;5.60;;;8.30;58.40;;;;;;5072843;28;20425;-73
2023/12/20 10:52:58;;;;;;;20.50;5.10;;;8.20;59.40;;;;;;5091369;28;20864;-74
2023/12/20 10:55:24;;;;;;;25.25;5.70;;;8.40;58.40;;;;;;5091641;28;20381;-75
2023/12/20 10:58:00;;;;;;;21.05;5.05;;;8.50;58.00;;;;;;5091781;28;20393;-75
2023/12/20 11:00:26;;;;;;;19.65;5.47;;;8.40;57.60;;;;;;5091736;28;20385;-75
2023/12/20 11:02:53;;;;;;;22.45;5.50;;;8.50;58.50;;;;;;5074288;28;20370;-75
2023/12/20 11:05:50;;;;;;;16.45;5.53;;;8.50;58.40;;;;;;5094071;28;20432;-75
2023/12/20 11:08:22;;;;;;;17.98;5.05;;;8.40;58.20;;;;;;5092005;28;20384;-75
2023/12/20 11:10:50;;;;;;;21.27;5.13;;;8.50;57.90;;;;;;5073069;28;20401;-76
2023/12/20 11:13:22;;;;;;;19.25;5.40;;;8.40;58.30;;;;;;5073024;28;20487;-74
2023/12/20 11:15:48;;;;;;;19.85;6.00;;;8.40;59.20;;;;;;5091305;28;20378;-76
2023/12/20 11:18:15;;;;;;;16.05;5.35;;;8.30;59.60;;;;;;5091271;28;20386;-75
2023/12/20 11:20:42;;;;;;;24.42;5.90;;;8.30;59.90;;;;;;5091357;28;20465;-74
2023/12/20 11:23:10;;;;;;;15.25;5.50;;;8.40;59.60;;;;;;5091218;28;20382;-75
2023/12/20 11:26:08;;;;;;;20.23;6.45;;;8.30;61.20;;;;;;5091547;28;20397;-74
2023/12/20 11:28:34;;;;;;;22.80;5.45;;;8.30;61.10;;;;;;5046235;28;20408;-75
2023/12/20 11:31:01;;;;;;;27.17;6.30;;;8.30;62.00;;;;;;5090574;28;20963;-75
2023/12/20 11:33:30;;;;;;;16.50;5.30;;;8.30;62.30;;;;;;5090681;28;20402;-75
2023/12/20 11:35:57;;;;;;;18.55;5.80;;;8.30;61.90;;;;;;5090813;28;20808;-75
2023/12/20 11:38:24;;;;;;;24.13;6.68;;;8.40;60.60;;;;;;5091198;28;20896;-75
2023/12/20 11:40:50;;;;;;;29.42;5.80;;;8.30;61.30;;;;;;5073845;28;20473;-74
2023/12/20 11:43:34;;;;;;;17.60;4.90;;;8.40;60.70;;;;;;5094799;28;20382;-75
2023/12/20 11:46:09;;;;;;;19.98;5.20;;;8.50;59.70;;;;;;5093892;28;20382;-76
2023/12/20 11:48:37;;;;;;;21.00;5.13;;;8.40;59.60;;;;;;5094309;28;20432;-76
2023/12/20 11:51:08;;;;;;;20.85;5.53;;;8.40;60.20;;;;;;5094841;28;20402;-76
2023/12/20 11:53:33;;;;;;;19.85;4.93;;;8.50;59.50;;;;;;5097584;28;20366;-76
2023/12/20 11:56:00;;;;;;;22.03;6.30;;;8.50;60.10;;;;;;5076906;28;20903;-74
2023/12/20 11:58:25;;;;;;;21.00;5.47;;;8.70;59.70;;;;;;5095458;28;20481;-75
2023/12/20 12:00:51;;;;;;;25.30;4.93;;;8.70;58.10;;;;;;5093888;28;20394;-75
2023/12/20 12:03:17;;;;;;;19.65;5.00;;;8.80;57.30;;;;;;5095182;28;20378;-76
2023/12/20 12:05:42;;;;;;;22.33;5.13;;;8.70;59.00;;;;;;5094967;28;20410;-77
2023/12/20 12:08:08;;;;;;;17.20;5.03;;;8.60;59.70;;;;;;5094335;28;20392;-75
2023/12/20 12:10:33;;;;;;;18.30;5.23;;;8.50;60.00;;;;;;5094013;28;20474;-77
2023/12/20 12:13:00;;;;;;;17.83;5.32;;;8.50;60.30;;;;;;5096293;28;20485;-75
2023/12/20 12:15:26;;;;;;;18.20;5.03;;;8.40;60.20;;;;;;5076206;28;20463;-75
2023/12/20 12:17:59;;;;;;;20.57;5.37;;;8.40;60.30;;;;;;5095366;28;20735;-74
2023/12/20 12:20:25;;;;;;;17.90;5.30;;;8.40;62.00;;;;;;5094067;28;20467;-75
2023/12/20 12:23:01;;;;;;;28.25;6.10;;;8.40;61.50;;;;;;5094324;28;20422;-77
2023/12/20 12:25:28;;;;;;;13.98;4.90;;;8.40;61.70;;;;;;5093881;28;20374;-76
2023/12/20 12:27:54;;;;;;;15.95;4.88;;;8.50;62.30;;;;;;5094042;28;20374;-75
2023/12/20 12:30:19;;;;;;;18.40;5.63;;;8.50;61.60;;;;;;5094411;28;20758;-74
2023/12/20 12:32:45;;;;;;;18.10;5.30;;;8.40;61.80;;;;;;5093969;28;20447;-76
2023/12/20 12:35:11;;;;;;;23.43;5.93;;;8.40;64.50;;;;;;5093368;28;20469;-74
2023/12/20 12:37:40;;;;;;;19.70;5.80;;;8.40;64.00;;;;;;5093281;28;20459;-75
2023/12/20 12:40:11;;;;;;;17.63;5.80;;;8.40;63.70;;;;;;5093582;28;20378;-73